Time;durP1;ratioP1;P1;durP2;ratioP2;P2;SDS_P1;SDS_P2;PMS_P1;PMS_P2;Temp;Humidity;BMP_temperature;BMP_pressure;BME280_temperature;BME280_humidity;BME280_pressure;Samples;Min_cycle;Max_cycle;Signal;HPM_P1;HPM_P2
2022/11/12 00:02:20;;;;;;;69.53;27.85;;;5.20;99.90;;;3.87;100.00;98904.13;4989721;28;20450;-75
2022/11/12 00:04:46;;;;;;;70.82;28.65;;;5.20;99.90;;;3.84;100.00;98904.44;5007519;28;20416;-75
2022/11/12 00:07:12;;;;;;;58.53;26.90;;;5.20;99.90;;;3.81;100.00;98914.47;5009567;28;20405;-75
2022/11/12 00:09:39;;;;;;;65.30;26.52;;;5.10;99.90;;;3.77;100.00;98915.78;5009582;28;20471;-74
2022/11/12 00:12:05;;;;;;;69.28;27.90;;;5.10;99.90;;;3.75;100.00;98913.34;5009452;28;20937;-75
2022/11/12 00:14:31;;;;;;;90.50;33.42;;;5.00;99.90;;;3.81;100.00;98907.41;5008335;28;20444;-74
2022/11/12 00:16:57;;;;;;;69.70;27.83;;;5.10;99.90;;;3.73;100.00;98904.00;5009290;28;20507;-74
2022/11/12 00:19:23;;;;;;;88.53;32.33;;;5.00;99.90;;;3.76;100.00;98903.69;5010825;28;20771;-74
2022/11/12 00:21:48;;;;;;;84.30;31.37;;;5.00;99.90;;;3.66;100.00;98900.44;5012897;28;20409;-74
2022/11/12 00:24:14;;;;;;;77.88;30.60;;;5.00;99.90;;;3.64;100.00;98894.56;5011961;28;20412;-74
2022/11/12 00:26:41;;;;;;;90.72;33.30;;;5.00;99.90;;;3.63;100.00;98898.16;5012649;28;20459;-74
2022/11/12 00:29:07;;;;;;;87.95;33.90;;;4.90;99.90;;;3.61;100.00;98900.94;5012710;28;20403;-74
2022/11/12 00:31:33;;;;;;;99.18;34.38;;;4.90;99.90;;;3.59;100.00;98904.72;5012840;28;20788;-75
2022/11/12 00:34:00;;;;;;;86.90;33.10;;;4.90;99.90;;;3.57;100.00;98904.06;5011543;28;20444;-75
2022/11/12 00:36:26;;;;;;;106.40;36.38;;;4.90;99.90;;;3.61;100.00;98900.16;5012372;28;20452;-75
2022/11/12 00:38:52;;;;;;;111.10;37.72;;;4.90;99.90;;;3.62;100.00;98899.13;5012526;28;20913;-75
2022/11/12 00:41:17;;;;;;;93.65;33.47;;;4.90;99.90;;;3.54;100.00;98905.22;5012655;28;20415;-75
2022/11/12 00:43:45;;;;;;;125.93;39.40;;;4.90;99.90;;;3.59;100.00;98902.94;5011378;28;20797;-75
2022/11/12 00:46:11;;;;;;;92.38;33.42;;;4.90;99.90;;;3.54;100.00;98901.78;4994670;28;20409;-74
2022/11/12 00:48:37;;;;;;;114.13;36.57;;;4.90;99.90;;;3.53;100.00;98903.63;5012376;28;21031;-75
2022/11/12 00:51:04;;;;;;;113.97;37.20;;;4.80;99.90;;;3.50;100.00;98899.53;5012265;28;20404;-74
2022/11/12 00:53:31;;;;;;;93.63;32.65;;;4.80;99.90;;;3.43;100.00;98903.81;5011221;28;20433;-74
2022/11/12 00:56:02;;;;;;;103.03;34.97;;;4.80;99.90;;;3.42;100.00;98907.41;5012102;28;20417;-75
2022/11/12 00:58:29;;;;;;;106.07;37.35;;;4.70;99.90;;;3.46;100.00;98902.63;5012209;28;20397;-74
2022/11/12 01:00:57;;;;;;;105.50;37.10;;;4.70;99.90;;;3.40;100.00;98905.91;4994545;28;20855;-75
2022/11/12 01:03:26;;;;;;;116.17;38.53;;;4.70;99.90;;;3.38;100.00;98903.47;5011097;28;20440;-74
2022/11/12 01:05:52;;;;;;;115.28;39.03;;;4.70;99.90;;;3.36;100.00;98896.78;5011996;28;20782;-75
2022/11/12 01:08:18;;;;;;;92.73;33.73;;;4.70;99.90;;;3.32;100.00;98892.84;5012087;28;20463;-75
2022/11/12 01:10:43;;;;;;;105.22;35.47;;;4.60;99.90;;;3.30;100.00;98898.28;5011988;28;20405;-75
2022/11/12 01:13:09;;;;;;;98.28;34.30;;;4.60;99.90;;;3.27;100.00;98895.97;4993282;28;20421;-75
2022/11/12 01:15:40;;;;;;;126.13;40.67;;;4.60;99.90;;;3.32;100.00;98896.28;5011741;28;20420;-75
2022/11/12 01:18:07;;;;;;;98.88;34.63;;;4.60;99.90;;;3.24;100.00;98892.88;5011824;28;20403;-73
2022/11/12 01:20:37;;;;;;;104.32;34.83;;;4.60;99.90;;;3.20;100.00;98897.63;5011843;28;20411;-74
2022/11/12 01:23:02;;;;;;;85.73;31.87;;;4.50;99.90;;;3.18;100.00;98901.41;5010694;28;20413;-73
2022/11/12 01:25:28;;;;;;;86.15;31.70;;;4.50;99.90;;;3.17;100.00;98899.75;5011596;28;20472;-74
2022/11/12 01:27:54;;;;;;;115.80;37.35;;;4.50;99.90;;;3.19;100.00;98898.63;5011611;28;20536;-74
2022/11/12 01:30:20;;;;;;;98.82;33.08;;;4.50;99.90;;;3.17;100.00;98899.75;5011418;28;20405;-74
2022/11/12 01:32:47;;;;;;;93.15;32.70;;;4.50;99.90;;;3.15;100.00;98893.91;5010701;28;20495;-74
2022/11/12 01:35:14;;;;;;;98.38;31.35;;;4.50;99.90;;;3.13;100.00;98896.69;4993752;28;20475;-73
2022/11/12 01:37:40;;;;;;;83.55;28.98;;;4.50;99.90;;;3.12;100.00;98889.81;5011379;28;20411;-75
2022/11/12 01:40:08;;;;;;;76.00;27.92;;;4.40;99.90;;;3.11;100.00;98888.16;5011453;28;20405;-75
2022/11/12 01:42:34;;;;;;;101.60;31.50;;;4.40;99.90;;;3.10;100.00;98883.91;5011132;28;20419;-74
2022/11/12 01:45:00;;;;;;;90.90;30.17;;;4.40;99.90;;;3.07;100.00;98876.41;5010377;28;20408;-74
2022/11/12 01:47:30;;;;;;;88.63;30.75;;;4.40;99.90;;;3.05;100.00;98873.16;5011212;28;20459;-74
2022/11/12 01:50:03;;;;;;;89.80;30.37;;;4.40;99.90;;;3.05;100.00;98873.16;5011326;28;20624;-75
2022/11/12 01:52:36;;;;;;;96.17;31.87;;;4.40;99.90;;;3.05;100.00;98873.97;5011128;28;20400;-74
2022/11/12 01:55:08;;;;;;;82.53;29.13;;;4.40;99.90;;;3.04;100.00;98863.66;4992690;28;20413;-74
2022/11/12 01:57:40;;;;;;;74.25;27.85;;;4.40;99.90;;;3.03;100.00;98862.03;5011269;28;20443;-74
2022/11/12 02:00:11;;;;;;;98.00;32.58;;;4.40;99.90;;;3.03;100.00;98857.59;5011118;28;20433;-74
2022/11/12 02:02:38;;;;;;;92.28;31.30;;;4.40;99.90;;;3.00;100.00;98862.38;5010612;28;20404;-74
2022/11/12 02:05:08;;;;;;;87.90;29.02;;;4.40;99.90;;;2.97;100.00;98860.91;5067249;22;20431;-76
2022/11/12 02:07:38;;;;;;;77.03;29.38;;;4.30;99.90;;;2.97;100.00;98860.91;5070630;28;20418;-75
2022/11/12 02:10:06;;;;;;;115.28;36.22;;;4.30;99.90;;;3.09;100.00;98858.72;5052885;28;20444;-76
2022/11/12 02:15:17;;;;;;;106.22;33.75;;;4.30;99.90;;;2.99;100.00;98853.72;5070440;28;20421;-75
2022/11/12 02:17:43;;;;;;;89.20;31.90;;;4.30;99.90;;;2.96;100.00;98847.97;5070555;28;20498;-76
2022/11/12 02:20:11;;;;;;;97.90;33.72;;;4.30;99.90;;;2.99;100.00;98851.09;5070693;28;20422;-76
2022/11/12 02:22:38;;;;;;;73.82;28.60;;;4.30;99.90;;;2.95;100.00;98847.16;5070488;28;20396;-76
2022/11/12 02:25:08;;;;;;;85.55;30.80;;;4.30;99.90;;;2.96;100.00;98835.72;5070039;28;20418;-75
2022/11/12 02:27:34;;;;;;;85.60;31.20;;;4.30;99.90;;;2.98;100.00;98844.22;5070550;28;20396;-76
2022/11/12 02:30:00;;;;;;;94.00;32.38;;;4.30;99.90;;;2.98;100.00;98846.03;5070236;28;20442;-76
2022/11/12 02:32:26;;;;;;;92.32;31.73;;;4.30;99.90;;;2.97;100.00;98850.44;5070590;28;20431;-75
2022/11/12 02:34:51;;;;;;;77.65;27.40;;;4.30;99.90;;;2.97;100.00;98853.06;5068767;28;20408;-75
2022/11/12 02:37:17;;;;;;;88.37;32.53;;;4.30;99.90;;;3.01;100.00;98840.44;5070083;28;20439;-76
2022/11/12 02:39:44;;;;;;;90.75;31.48;;;4.30;99.90;;;3.01;100.00;98840.44;5070184;28;20402;-76
2022/11/12 02:42:10;;;;;;;91.43;31.38;;;4.30;99.90;;;3.03;100.00;98841.91;5069824;28;20450;-76
2022/11/12 02:44:36;;;;;;;96.88;30.70;;;4.40;99.90;;;3.04;100.00;98847.97;5069047;28;20403;-76
2022/11/12 02:47:02;;;;;;;91.20;30.55;;;4.30;99.90;;;3.01;100.00;98843.06;5070068;28;20495;-76
2022/11/12 02:49:28;;;;;;;76.93;27.77;;;4.30;99.90;;;3.01;100.00;98843.06;5070030;28;20407;-77
2022/11/12 02:51:54;;;;;;;89.60;30.15;;;4.30;99.90;;;3.06;100.00;98838.97;5069955;28;20395;-76
2022/11/12 02:54:20;;;;;;;71.93;26.45;;;4.40;99.90;;;3.00;100.00;98842.25;5068918;28;20901;-75
2022/11/12 02:56:47;;;;;;;79.63;28.15;;;4.30;99.90;;;2.99;100.00;98837.19;5069780;28;20445;-75
2022/11/12 02:59:13;;;;;;;73.07;26.98;;;4.30;99.90;;;2.95;100.00;98838.50;5069994;28;20407;-75
2022/11/12 03:01:38;;;;;;;61.20;22.77;;;4.30;99.90;;;2.92;100.00;98838.84;5069911;28;20403;-76
2022/11/12 03:04:04;;;;;;;70.13;24.63;;;4.20;99.90;;;2.89;100.00;98840.00;5069030;28;20403;-76
2022/11/12 03:06:30;;;;;;;73.27;25.63;;;4.20;99.90;;;2.91;100.00;98834.59;5069954;28;20382;-77
2022/11/12 03:08:56;;;;;;;72.43;25.35;;;4.20;99.90;;;2.90;100.00;98839.00;5069897;28;20891;-75
2022/11/12 03:11:22;;;;;;;84.25;28.25;;;4.20;99.90;;;2.96;100.00;98840.13;5051785;28;20464;-76
2022/11/12 03:13:50;;;;;;;60.20;23.45;;;4.20;99.90;;;2.89;100.00;98847.00;5068890;28;20486;-75
2022/11/12 03:16:16;;;;;;;64.30;23.35;;;4.20;99.90;;;2.89;100.00;98849.63;5069462;28;20769;-76
2022/11/12 03:18:41;;;;;;;73.88;25.42;;;4.20;99.90;;;2.92;100.00;98847.50;5069739;28;20399;-76
2022/11/12 03:21:07;;;;;;;66.70;24.67;;;4.20;99.90;;;2.97;100.00;98852.22;5069889;28;20410;-76
2022/11/12 03:23:33;;;;;;;72.65;23.45;;;4.30;99.90;;;2.94;100.00;98853.38;5068693;28;20461;-76
2022/11/12 03:26:02;;;;;;;60.37;23.53;;;4.30;99.90;;;2.98;100.00;98848.63;5069740;28;20961;-76
2022/11/12 03:28:28;;;;;;;71.93;26.38;;;4.30;99.90;;;3.07;100.00;98850.25;5069594;28;20391;-77
2022/11/12 03:30:59;;;;;;;61.55;23.88;;;4.30;99.90;;;3.04;100.00;98848.78;5069521;28;20456;-76
2022/11/12 03:33:25;;;;;;;66.05;24.00;;;4.30;99.90;;;3.05;100.00;98841.75;5068673;28;20811;-76
2022/11/12 03:35:51;;;;;;;57.95;20.90;;;4.30;99.90;;;3.03;100.00;98835.88;5069354;28;20407;-76
2022/11/12 03:38:17;;;;;;;54.42;20.02;;;4.30;99.90;;;3.01;100.00;98832.59;5069385;28;20491;-76
2022/11/12 03:40:43;;;;;;;56.17;20.45;;;4.30;99.90;;;2.98;100.00;98831.16;5069540;28;20837;-76
2022/11/12 03:43:08;;;;;;;55.60;19.83;;;4.30;99.90;;;2.94;100.00;98835.06;5068535;28;20404;-76
2022/11/12 03:45:34;;;;;;;62.85;21.65;;;4.30;99.90;;;2.91;100.00;98845.06;5067940;28;20419;-76
2022/11/12 03:48:02;;;;;;;58.30;22.75;;;4.20;99.90;;;2.88;100.00;98843.56;5069352;28;20423;-76
2022/11/12 03:50:29;;;;;;;60.77;22.43;;;4.20;99.90;;;2.86;100.00;98835.06;5069325;28;20396;-76
2022/11/12 03:52:57;;;;;;;51.03;20.85;;;4.20;99.90;;;2.86;100.00;98837.69;5068437;28;20396;-76
2022/11/12 03:55:26;;;;;;;60.55;22.23;;;4.10;99.90;;;2.83;100.00;98845.88;5072379;28;20992;-77
2022/11/12 03:57:53;;;;;;;46.97;19.77;;;4.20;99.90;;;2.81;100.00;98845.22;5073158;28;20392;-77
2022/11/12 04:00:21;;;;;;;76.40;24.25;;;4.10;99.90;;;2.86;100.00;98863.03;5073090;28;20400;-76
2022/11/12 04:02:47;;;;;;;50.40;20.00;;;4.10;99.90;;;2.79;100.00;98855.03;5072281;28;20918;-77
2022/11/12 04:10:46;;;;;;;57.47;20.98;;;4.10;99.90;;;2.74;100.00;98846.88;5072852;28;20471;-76
2022/11/12 04:13:28;;;;;;;51.40;19.77;;;4.10;99.90;;;2.71;100.00;98850.63;5071900;28;20407;-76
2022/11/12 04:21:51;;;;;;;51.95;20.23;;;4.10;99.90;;;2.83;100.00;98845.06;5072796;28;20461;-75
2022/11/12 04:27:04;;;;;;;52.15;20.92;;;4.20;99.90;;;2.95;100.00;98851.56;5072602;28;20442;-76
2022/11/12 04:32:14;;;;;;;45.67;18.97;;;4.30;99.90;;;3.03;100.00;98844.53;5072600;28;21009;-75
2022/11/12 04:34:40;;;;;;;59.50;21.75;;;4.30;99.90;;;3.07;100.00;98843.22;5071443;28;20438;-76
2022/11/12 04:37:07;;;;;;;53.17;20.50;;;4.40;99.90;;;3.09;100.00;98843.84;5072321;28;20416;-76
2022/11/12 04:39:34;;;;;;;53.47;20.10;;;4.40;99.90;;;3.11;100.00;98833.22;5072418;28;20479;-76
2022/11/12 04:45:03;;;;;;;59.53;21.40;;;4.40;99.90;;;3.18;100.00;98828.13;5071388;28;20410;-76
2022/11/12 04:47:34;;;;;;;60.53;21.52;;;4.40;99.90;;;3.21;100.00;98833.88;5072286;28;20391;-77
2022/11/12 04:50:01;;;;;;;60.75;21.77;;;4.50;99.90;;;3.23;100.00;98829.28;5072325;28;20399;-76
2022/11/12 04:52:30;;;;;;;49.20;18.75;;;4.50;99.90;;;3.24;100.00;98825.66;5072096;28;20885;-77
2022/11/12 04:54:57;;;;;;;53.88;20.02;;;4.50;99.90;;;3.26;100.00;98818.47;5071080;28;20392;-76
2022/11/12 04:57:23;;;;;;;46.33;19.20;;;4.50;99.90;;;3.28;100.00;98823.53;5072090;28;20437;-76
2022/11/12 04:59:50;;;;;;;44.80;17.90;;;4.50;99.90;;;3.30;100.00;98824.19;5071927;28;20411;-76
2022/11/12 05:02:16;;;;;;;46.72;17.67;;;4.60;99.90;;;3.32;100.00;98835.28;5065308;28;20403;-76
2022/11/12 05:04:42;;;;;;;47.30;17.77;;;4.60;99.90;;;3.31;100.00;98836.25;5069937;28;20400;-76
2022/11/12 05:07:09;;;;;;;50.13;17.73;;;4.60;99.90;;;3.29;100.00;98844.31;5071688;28;20436;-76
2022/11/12 05:09:36;;;;;;;44.40;18.10;;;4.60;99.90;;;3.28;100.00;98841.84;5071718;28;20403;-76
2022/11/12 05:12:03;;;;;;;51.45;18.35;;;4.50;99.90;;;3.24;100.00;98843.16;5071808;28;20431;-76
2022/11/12 05:14:28;;;;;;;45.60;18.90;;;4.50;99.90;;;3.24;100.00;98841.34;5070848;28;20822;-76
2022/11/12 05:16:54;;;;;;;40.97;18.20;;;4.50;99.90;;;3.24;100.00;98837.91;5071461;28;20408;-76
2022/11/12 05:19:20;;;;;;;58.47;20.05;;;4.50;99.90;;;3.23;100.00;98842.38;5071648;28;20408;-76
2022/11/12 05:22:04;;;;;;;52.90;19.95;;;4.50;99.90;;;3.24;100.00;98851.00;5071632;28;20485;-76
2022/11/12 05:24:31;;;;;;;55.38;20.05;;;4.50;99.90;;;3.24;100.00;98851.00;5070513;28;20516;-76
2022/11/12 05:26:59;;;;;;;50.38;19.55;;;4.50;99.90;;;3.24;100.00;98843.16;5071476;28;20793;-76
2022/11/12 05:29:25;;;;;;;60.25;22.15;;;4.50;99.90;;;3.26;100.00;98839.41;5071548;28;20400;-76
2022/11/12 05:31:51;;;;;;;47.83;19.27;;;4.50;99.90;;;3.22;100.00;98839.91;5071302;28;20811;-76
2022/11/12 05:34:16;;;;;;;61.78;21.02;;;4.50;99.90;;;3.20;100.00;98849.72;5070336;28;20395;-76
2022/11/12 05:36:42;;;;;;;56.65;19.48;;;4.50;99.90;;;3.20;100.00;98849.72;5070982;28;20557;-76
2022/11/12 05:39:08;;;;;;;48.70;18.25;;;4.50;99.90;;;3.18;100.00;98852.50;5071246;28;20468;-76
2022/11/12 05:41:34;;;;;;;42.83;17.08;;;4.40;99.90;;;3.17;100.00;98855.28;5071013;28;20414;-75
2022/11/12 05:44:01;;;;;;;48.83;18.23;;;4.40;99.90;;;3.14;100.00;98846.00;5070034;28;20432;-76
2022/11/12 05:46:27;;;;;;;54.70;20.10;;;4.40;99.90;;;3.14;100.00;98851.22;5070962;28;20479;-76
2022/11/12 05:48:53;;;;;;;56.42;19.55;;;4.40;99.90;;;3.10;100.00;98861.19;5070922;28;20461;-76
2022/11/12 05:51:19;;;;;;;67.57;22.13;;;4.40;99.90;;;3.11;100.00;98852.34;5069612;28;20450;-76
2022/11/12 05:53:45;;;;;;;64.43;22.63;;;4.40;99.90;;;3.05;100.00;98857.44;5069871;28;20396;-75
2022/11/12 05:56:11;;;;;;;44.35;18.85;;;4.30;99.90;;;2.98;100.00;98856.47;5070742;28;20449;-76
2022/11/12 05:58:37;;;;;;;37.88;17.30;;;4.30;99.90;;;2.95;100.00;98854.19;5070818;28;20508;-77
2022/11/12 06:01:05;;;;;;;61.58;20.90;;;4.20;99.90;;;2.93;100.00;98851.72;5070652;28;20826;-76
2022/11/12 06:03:31;;;;;;;61.25;22.27;;;4.20;99.90;;;2.95;100.00;98860.25;5069564;28;20481;-76
2022/11/12 06:05:58;;;;;;;53.65;19.60;;;4.30;99.90;;;2.87;100.00;98865.47;5070545;28;20396;-75
2022/11/12 06:08:23;;;;;;;50.90;21.67;;;4.20;99.90;;;2.89;100.00;98867.94;5070706;28;20403;-77
2022/11/12 06:10:50;;;;;;;52.40;22.10;;;4.20;99.90;;;2.89;100.00;98866.13;5070703;28;20821;-76
2022/11/12 06:13:16;;;;;;;62.72;23.05;;;4.10;99.90;;;2.90;100.00;98870.38;5051665;28;20641;-76
2022/11/12 06:15:43;;;;;;;52.17;21.67;;;4.20;99.90;;;2.80;100.00;98879.38;5070383;28;20928;-76
2022/11/12 06:18:10;;;;;;;54.33;21.27;;;4.10;99.90;;;2.75;100.00;98869.44;5069875;28;20450;-76
2022/11/12 06:20:36;;;;;;;40.35;19.02;;;4.10;99.90;;;2.72;100.00;98867.94;5070258;28;20411;-76
2022/11/12 06:23:03;;;;;;;46.00;19.80;;;4.00;99.90;;;2.67;100.00;98878.09;5069819;28;20404;-76
2022/11/12 06:25:29;;;;;;;46.10;19.33;;;3.90;99.90;;;2.65;100.00;98882.66;5070214;28;20873;-76
2022/11/12 06:27:55;;;;;;;45.83;18.90;;;4.00;99.90;;;2.62;100.00;98883.00;5070357;28;20447;-76
2022/11/12 06:30:21;;;;;;;49.15;20.25;;;3.90;99.90;;;2.61;100.00;98880.56;5070308;28;20899;-76
2022/11/12 06:32:48;;;;;;;45.97;18.67;;;3.90;99.90;;;2.61;100.00;98875.31;5051494;28;20400;-76
2022/11/12 06:35:17;;;;;;;53.42;20.75;;;3.90;99.90;;;2.65;100.00;98874.81;5069760;28;20410;-76
2022/11/12 06:37:46;;;;;;;39.08;18.05;;;4.00;99.90;;;2.60;100.00;98879.72;5070084;28;20396;-76
2022/11/12 06:40:12;;;;;;;44.90;18.63;;;3.90;99.90;;;2.56;100.00;98878.41;5070103;28;20400;-77
2022/11/12 06:42:39;;;;;;;46.00;19.00;;;3.90;99.90;;;2.53;100.00;98878.75;5070143;28;20904;-75
2022/11/12 06:45:06;;;;;;;57.40;22.05;;;3.80;99.90;;;2.61;100.00;98881.38;5069616;28;20395;-75
2022/11/12 06:47:32;;;;;;;49.03;19.67;;;3.90;99.90;;;2.55;100.00;98884.63;5069839;28;20490;-76
2022/11/12 06:49:58;;;;;;;46.60;19.30;;;3.90;99.90;;;2.53;100.00;98885.78;5070021;28;20396;-76
2022/11/12 06:52:26;;;;;;;44.22;17.88;;;3.90;99.90;;;2.49;100.00;98885.25;5069857;28;20472;-76
2022/11/12 06:54:51;;;;;;;35.03;15.82;;;3.80;99.90;;;2.48;100.00;98883.63;5069038;28;20400;-76
2022/11/12 06:57:17;;;;;;;50.40;20.67;;;3.80;99.90;;;2.55;100.00;98871.56;5069846;28;20885;-76
2022/11/12 06:59:43;;;;;;;42.57;18.60;;;3.80;99.90;;;2.54;100.00;98864.69;5069293;28;20497;-78
2022/11/12 07:02:11;;;;;;;41.92;19.52;;;3.80;99.90;;;2.60;100.00;98863.22;5069114;28;20407;-76
2022/11/12 07:04:37;;;;;;;38.67;18.10;;;3.90;99.90;;;2.63;100.00;98862.91;5068042;28;20407;-77
2022/11/12 07:07:03;;;;;;;48.30;19.77;;;3.90;99.90;;;2.69;100.00;98868.28;5069464;28;20919;-77
2022/11/12 07:09:30;;;;;;;43.13;18.10;;;4.00;99.90;;;2.72;100.00;98873.19;5058533;28;20899;-76
2022/11/12 07:11:56;;;;;;;51.92;21.23;;;4.00;99.90;;;2.81;100.00;98870.56;5061564;28;21262;-78
2022/11/12 07:14:22;;;;;;;40.83;17.30;;;4.10;99.90;;;2.82;100.00;98877.44;5065359;28;20774;-76
2022/11/12 07:16:48;;;;;;;43.60;18.40;;;4.10;99.90;;;2.87;100.00;98869.88;5049989;28;20463;-77
2022/11/12 07:19:14;;;;;;;41.73;18.07;;;4.10;99.90;;;2.91;100.00;98873.81;5061595;28;20434;-77
2022/11/12 07:21:40;;;;;;;40.05;17.15;;;4.20;99.90;;;2.96;100.00;98869.72;5065203;28;20839;-76
2022/11/12 07:24:07;;;;;;;52.05;20.65;;;4.20;99.90;;;3.07;100.00;98866.78;5056356;28;20426;-76
2022/11/12 07:26:34;;;;;;;58.78;22.77;;;4.30;99.90;;;3.17;100.00;98873.59;5074778;28;20446;-78
2022/11/12 07:29:00;;;;;;;49.35;18.42;;;4.40;99.90;;;3.19;100.00;98869.84;5065607;28;20419;-77
2022/11/12 07:31:26;;;;;;;48.55;19.40;;;4.40;99.90;;;3.25;100.00;98877.00;5082879;28;20396;-77
2022/11/12 07:33:52;;;;;;;40.75;17.77;;;4.50;99.90;;;3.33;100.00;98871.75;5081674;28;20430;-78
2022/11/12 07:36:20;;;;;;;44.97;18.30;;;4.60;99.90;;;3.40;100.00;98854.38;5075480;28;20443;-77
2022/11/12 07:38:50;;;;;;;45.55;17.85;;;4.60;99.90;;;3.46;100.00;98858.94;5064373;28;20413;-77
2022/11/12 07:41:18;;;;;;;44.08;17.95;;;4.70;99.90;;;3.52;100.00;98861.88;5079067;28;20424;-77
2022/11/12 07:43:47;;;;;;;49.20;17.33;;;4.70;99.90;;;3.58;100.00;98851.56;5069814;28;20494;-77
2022/11/12 07:46:17;;;;;;;41.13;17.00;;;4.70;99.90;;;3.64;100.00;98856.09;5074983;28;20854;-76
2022/11/12 07:48:43;;;;;;;43.75;17.58;;;4.80;99.90;;;3.68;100.00;98852.16;5084876;28;20401;-77
2022/11/12 07:51:14;;;;;;;40.97;16.83;;;4.80;99.90;;;3.71;100.00;98849.19;5093787;28;20394;-78
2022/11/12 07:53:40;;;;;;;48.20;18.90;;;4.90;99.90;;;3.75;100.00;98853.13;5082612;28;20419;-78
2022/11/12 07:56:09;;;;;;;39.35;16.77;;;4.90;99.90;;;3.78;100.00;98854.56;5088388;28;20409;-77
2022/11/12 07:58:35;;;;;;;42.05;17.48;;;4.90;99.90;;;3.81;100.00;98857.66;5093391;28;20398;-77
2022/11/12 08:01:09;;;;;;;47.72;19.63;;;5.00;99.90;;;3.84;100.00;98856.47;5090894;28;20440;-77
2022/11/12 08:03:35;;;;;;;46.77;19.13;;;5.00;99.90;;;3.87;100.00;98862.22;5081787;28;21069;-77
2022/11/12 08:06:02;;;;;;;45.80;19.05;;;5.00;99.90;;;3.93;100.00;98860.69;5075721;22;20486;-76
2022/11/12 08:08:28;;;;;;;47.00;20.02;;;5.10;99.90;;;3.98;100.00;98861.00;5062400;28;20410;-75
2022/11/12 08:10:55;;;;;;;41.83;18.20;;;5.10;99.90;;;4.04;100.00;98870.78;5054574;28;20817;-76
2022/11/12 08:13:21;;;;;;;45.22;18.67;;;5.20;99.90;;;4.08;100.00;98869.44;5052376;28;20408;-76
2022/11/12 08:15:47;;;;;;;42.03;18.20;;;5.20;99.90;;;4.11;100.00;98865.66;5043803;28;20779;-76
2022/11/12 08:18:14;;;;;;;44.30;18.83;;;5.30;99.90;;;4.15;100.00;98869.56;5066467;28;20408;-75
2022/11/12 08:20:40;;;;;;;43.90;19.73;;;5.30;99.90;;;4.19;100.00;98873.47;5024495;28;20774;-76
2022/11/12 08:23:06;;;;;;;47.80;20.65;;;5.30;99.90;;;4.25;100.00;98873.59;5045284;28;20495;-76
2022/11/12 08:25:32;;;;;;;49.25;20.92;;;5.40;99.90;;;4.33;100.00;98869.28;5063061;28;20417;-75
2022/11/12 08:27:59;;;;;;;42.15;18.63;;;5.50;99.90;;;4.41;100.00;98874.47;5061482;28;20410;-76
2022/11/12 08:30:26;;;;;;;45.28;19.13;;;5.50;99.90;;;4.51;100.00;98867.19;5064251;28;20439;-76
2022/11/12 08:32:57;;;;;;;41.53;17.63;;;5.60;99.90;;;4.59;100.00;98865.31;5071629;28;20402;-75
2022/11/12 08:35:27;;;;;;;47.47;18.98;;;5.70;99.90;;;4.68;100.00;98861.63;5054111;28;20825;-75
2022/11/12 08:37:58;;;;;;;57.63;22.98;;;5.80;99.90;;;4.74;100.00;98859.28;5072327;28;21007;-75
2022/11/12 08:40:24;;;;;;;45.05;18.42;;;5.80;99.90;;;4.84;100.00;98858.06;5071789;28;20788;-75
2022/11/12 08:42:57;;;;;;;45.78;18.20;;;5.90;99.90;;;4.94;100.00;98863.88;5071053;28;20439;-74
2022/11/12 08:45:23;;;;;;;34.13;15.88;;;6.00;99.90;;;5.09;100.00;98866.50;5060156;28;20414;-77
2022/11/12 08:47:49;;;;;;;56.30;20.15;;;6.10;99.90;;;5.21;100.00;98864.25;5064657;28;21041;-76
2022/11/12 08:50:15;;;;;;;43.00;17.30;;;6.30;99.90;;;5.36;100.00;98865.88;5054046;28;20409;-77
2022/11/12 08:52:42;;;;;;;38.95;17.33;;;6.40;99.90;;;5.48;100.00;98868.88;5054042;28;20411;-78
2022/11/12 08:55:08;;;;;;;36.47;15.82;;;6.50;99.90;;;5.66;100.00;98861.41;5050527;28;20406;-77
2022/11/12 08:57:40;;;;;;;34.78;15.90;;;6.60;99.90;;;5.86;100.00;98859.03;5048991;28;20508;-76
2022/11/12 09:00:08;;;;;;;31.55;14.63;;;6.80;99.90;;;5.95;100.00;98857.13;5027392;28;20468;-77
2022/11/12 09:02:33;;;;;;;33.85;15.23;;;6.90;99.90;;;6.01;100.00;98856.41;5043646;28;20424;-76
2022/11/12 09:04:59;;;;;;;25.80;12.98;;;7.00;99.90;;;6.21;100.00;98862.69;5049268;28;20421;-76
2022/11/12 09:07:25;;;;;;;25.45;12.23;;;7.10;99.90;;;6.40;100.00;98858.59;5053915;28;20469;-77
2022/11/12 09:09:52;;;;;;;23.90;11.70;;;7.30;99.90;;;6.54;100.00;98858.53;5052479;28;20402;-77
2022/11/12 09:12:18;;;;;;;26.98;12.18;;;7.50;99.90;;;6.61;100.00;98858.63;5051181;28;20409;-76
2022/11/12 09:14:45;;;;;;;23.13;11.57;;;7.60;99.90;;;6.80;100.00;98851.88;5049628;28;20416;-78
2022/11/12 09:17:11;;;;;;;21.02;10.73;;;7.70;99.90;;;6.85;100.00;98852.91;5029235;28;20775;-78
2022/11/12 09:19:37;;;;;;;18.73;9.40;;;7.70;99.90;;;7.12;100.00;98848.69;5054241;28;20467;-78
2022/11/12 09:22:03;;;;;;;17.55;9.57;;;8.00;99.90;;;7.31;100.00;98847.97;5053461;28;20440;-78
2022/11/12 09:24:29;;;;;;;19.00;10.18;;;8.20;99.90;;;7.37;100.00;98841.09;5050260;28;20957;-78
2022/11/12 09:26:57;;;;;;;19.48;10.13;;;8.30;99.90;;;7.31;100.00;98844.50;5047200;28;20429;-78
2022/11/12 09:29:23;;;;;;;15.07;8.97;;;8.30;99.90;;;7.44;100.00;98838.53;5052206;28;20405;-77
2022/11/12 09:31:50;;;;;;;14.63;8.05;;;8.30;99.90;;;7.72;100.00;98833.97;5046127;28;20438;-77
2022/11/12 09:34:16;;;;;;;12.48;7.82;;;8.60;99.90;;;8.08;100.00;98834.50;5053345;28;20456;-78
2022/11/12 09:36:42;;;;;;;11.10;6.75;;;8.90;99.90;;;8.30;100.00;98831.69;5056356;28;20943;-78
2022/11/12 09:39:08;;;;;;;8.75;5.65;;;9.00;99.90;;;8.76;100.00;98831.75;5031805;28;20419;-78
2022/11/12 09:41:36;;;;;;;11.43;7.17;;;9.40;99.90;;;8.84;100.00;98829.72;5049660;28;20915;-79
2022/11/12 09:44:08;;;;;;;8.23;6.20;;;9.60;99.90;;;9.15;100.00;98834.38;5049642;28;20404;-79
2022/11/12 09:46:42;;;;;;;10.38;5.32;;;9.80;99.90;;;9.61;100.00;98828.94;5052665;28;20417;-78
2022/11/12 09:49:15;;;;;;;6.82;5.38;;;10.20;99.90;;;9.86;100.00;98818.44;5052188;28;20441;-79
2022/11/12 09:51:47;;;;;;;9.10;5.07;;;10.60;99.90;;;9.91;100.00;98821.28;5054558;28;20495;-78
2022/11/12 09:54:22;;;;;;;6.28;4.82;;;10.80;99.90;;;10.36;100.00;98821.25;5046455;28;20436;-79
2022/11/12 09:56:49;;;;;;;5.57;4.55;;;11.10;99.90;;;10.45;100.00;98823.41;5049370;28;20411;-79
2022/11/12 09:59:16;;;;;;;5.10;3.97;;;11.30;99.90;;;10.68;100.00;98828.13;5051267;28;20417;-79
2022/11/12 10:02:06;;;;;;;5.30;3.80;;;11.50;99.90;;;10.63;100.00;98827.16;5056218;28;20533;-79
2022/11/12 10:04:57;;;;;;;5.47;3.70;;;11.60;99.90;;;10.73;100.00;98822.19;5045194;28;20415;-78
2022/11/12 10:07:49;;;;;;;4.40;3.17;;;11.60;99.90;;;11.22;100.00;98829.25;5042280;28;20898;-78
2022/11/12 10:10:23;;;;;;;3.72;3.20;;;12.00;99.90;;;11.59;100.00;98825.59;5053452;28;20393;-79
2022/11/12 10:13:08;;;;;;;5.35;3.15;;;12.40;99.90;;;12.05;100.00;98828.72;5049887;28;20872;-76
2022/11/12 10:19:03;;;;;;;6.22;2.97;;;13.10;99.90;;;12.17;100.00;98826.94;5049836;28;20409;-80
2022/11/12 10:21:39;;;;;;;3.75;2.88;;;13.10;99.90;;;12.62;100.00;98827.28;5047221;28;20397;-81
2022/11/12 10:24:08;;;;;;;2.83;2.30;;;13.30;99.90;;;12.67;100.00;98825.56;5046370;28;20879;-80
2022/11/12 10:26:38;;;;;;;4.25;2.35;;;13.50;99.90;;;13.02;100.00;98820.25;5049771;28;20456;-78
2022/11/12 10:29:17;;;;;;;2.80;2.40;;;13.80;99.90;;;13.14;100.00;98818.44;5032678;28;20419;-77
2022/11/12 10:31:44;;;;;;;8.70;3.60;;;14.00;99.90;;;13.19;100.00;98817.75;5052905;28;20488;-78
2022/11/12 10:34:18;;;;;;;7.60;5.05;;;14.10;99.90;;;13.38;100.00;98808.56;5050890;28;20446;-78
2022/11/12 10:36:47;;;;;;;7.00;4.70;;;14.20;99.90;;;13.55;100.00;98811.31;5047627;28;20421;-77
2022/11/12 10:39:34;;;;;;;6.93;4.43;;;14.50;99.90;;;13.95;100.00;98803.34;5050929;28;20405;-80
2022/11/12 10:42:06;;;;;;;8.95;5.30;;;14.80;99.90;;;14.32;100.00;98806.41;5049771;28;20496;-81